Time;durP1;ratioP1;P1;durP2;ratioP2;P2;SDS_P1;SDS_P2;PMS_P1;PMS_P2;Temp;Humidity;BMP_temperature;BMP_pressure;BME280_temperature;BME280_humidity;BME280_pressure;Samples;Min_cycle;Max_cycle;Signal;HPM_P1;HPM_P2
2020/12/02 00:01:17;;;;;;;19.10;11.85;;;;;;;8.85;71.58;102243.72;5044739;28;20021;-88
2020/12/02 00:03:54;;;;;;;20.08;11.82;;;;;;;8.93;71.71;102241.13;5028229;28;20046;-87
2020/12/02 00:06:22;;;;;;;19.83;11.80;;;;;;;8.88;71.33;102246.41;5038327;28;20018;-84
2020/12/02 00:08:57;;;;;;;17.25;11.10;;;;;;;8.90;71.35;102246.41;5043389;28;20041;-87
2020/12/02 00:11:25;;;;;;;19.42;12.48;;;;;;;8.85;71.19;102234.91;5033229;28;20022;-87
2020/12/02 00:13:51;;;;;;;18.08;11.68;;;;;;;8.84;71.04;102241.06;5032445;28;20028;-88
2020/12/02 00:16:22;;;;;;;16.75;10.70;;;;;;;8.86;71.46;102244.56;5032550;28;20021;-88
2020/12/02 00:18:52;;;;;;;17.02;10.65;;;;;;;8.89;70.85;102247.28;5029893;28;20029;-88
2020/12/02 00:21:22;;;;;;;19.50;11.23;;;;;;;8.88;71.55;102240.19;5032846;28;20464;-87
2020/12/02 00:23:52;;;;;;;16.90;11.00;;;;;;;8.94;71.33;102249.97;5031292;28;20033;-88
2020/12/02 00:26:20;;;;;;;20.92;11.20;;;;;;;8.93;71.03;102246.41;5023883;28;20060;-87
2020/12/02 00:28:47;;;;;;;19.67;10.95;;;;;;;8.90;71.39;102242.00;5018542;28;20021;-88
2020/12/02 00:31:15;;;;;;;17.45;11.35;;;;;;;8.97;70.96;102247.34;5016594;28;20026;-88
2020/12/02 00:33:42;;;;;;;19.42;10.85;;;;;;;8.99;71.25;102243.81;5018978;28;20041;-88
2020/12/02 00:36:08;;;;;;;18.27;10.77;;;;;;;9.00;71.12;102247.38;5014731;28;20021;-87
2020/12/02 00:38:35;;;;;;;16.73;10.57;;;;;;;9.02;71.26;102249.16;5014645;28;20072;-88
2020/12/02 00:41:01;;;;;;;20.33;10.82;;;;;;;9.00;71.02;102245.59;5014790;28;20026;-87
2020/12/02 00:43:29;;;;;;;22.05;11.55;;;;;;;9.05;71.01;102243.00;5014460;28;20125;-86
2020/12/02 00:45:59;;;;;;;18.00;11.65;;;;;;;9.04;70.90;102252.69;5014980;28;20026;-87
2020/12/02 00:48:29;;;;;;;17.73;11.15;;;;;;;9.08;70.67;102245.66;5021234;28;20053;-86
2020/12/02 00:50:56;;;;;;;18.70;12.15;;;;;;;9.11;71.05;102244.81;5014842;28;20465;-87
2020/12/02 00:53:25;;;;;;;19.05;11.48;;;;;;;9.11;70.76;102243.06;5018824;28;20081;-88
2020/12/02 00:55:54;;;;;;;21.30;10.77;;;;;;;9.12;70.74;102241.28;5020169;28;20037;-87
2020/12/02 01:01:21;;;;;;;18.02;12.05;;;;;;;9.17;70.93;102239.56;5069862;28;21023;-86
2020/12/02 01:03:48;;;;;;;17.80;10.75;;;;;;;9.15;70.82;102242.22;5055389;28;20035;-89
2020/12/02 01:06:16;;;;;;;18.05;11.50;;;;;;;9.18;70.60;102241.34;5049516;28;20121;-88
2020/12/02 01:08:45;;;;;;;20.08;10.68;;;;;;;9.18;70.49;102246.63;5049242;28;20488;-87
2020/12/02 01:11:18;;;;;;;18.13;10.77;;;;;;;9.18;70.06;102236.97;5046566;28;20108;-87
2020/12/02 01:13:45;;;;;;;;;;;;;;;9.36;69.82;102236.22;5048602;28;20033;-87
2020/12/02 01:16:17;;;;;;;14.18;10.10;;;;;;;9.23;69.99;102239.63;5047192;28;19916;-86
2020/12/02 01:18:44;;;;;;;16.13;10.63;;;;;;;9.18;70.75;102238.72;5046755;28;20049;-87
2020/12/02 01:24:13;;;;;;;15.02;9.75;;;;;;;9.23;70.51;102236.97;5152965;27;20357;-86
2020/12/02 01:26:48;;;;;;;16.77;10.93;;;;;;;9.25;70.30;102243.19;5151712;27;20019;-86
2020/12/02 01:29:19;;;;;;;15.90;10.15;;;;;;;9.24;70.63;102236.13;5149888;27;20381;-86
2020/12/02 01:31:49;;;;;;;16.45;10.02;;;;;;;9.26;70.02;102244.06;5146568;27;20077;-86
2020/12/02 01:34:17;;;;;;;26.75;10.30;;;;;;;9.25;70.46;102237.88;5146703;27;20023;-87
2020/12/02 01:37:15;;;;;;;16.23;11.23;;;;;;;9.34;70.30;102231.78;5147890;27;20033;-86
2020/12/02 01:39:48;;;;;;;17.55;10.60;;;;;;;9.30;70.50;102243.22;5148854;27;20038;-88
2020/12/02 01:42:20;;;;;;;19.65;10.77;;;;;;;9.29;69.97;102229.09;5147474;27;20026;-88
2020/12/02 01:44:47;;;;;;;16.92;9.90;;;;;;;9.27;70.28;102230.88;5148956;27;20194;-86
2020/12/02 01:50:13;;;;;;;19.10;10.95;;;;;;;9.30;69.94;102230.88;5059082;27;20798;-87
2020/12/02 01:52:54;;;;;;;22.35;11.43;;;;;;;9.30;69.85;102236.16;5049993;28;20048;-87
2020/12/02 01:55:35;;;;;;;15.80;10.05;;;;;;;9.26;70.08;102239.66;5049952;28;20112;-88
2020/12/02 01:58:12;;;;;;;14.27;9.93;;;;;;;9.23;70.30;102242.28;5050278;28;20033;-87
2020/12/02 02:00:42;;;;;;;17.50;10.85;;;;;;;9.21;69.90;102238.75;5050661;28;20029;-87
2020/12/02 02:06:14;;;;;;;21.77;11.60;;;;;;;9.19;70.29;102240.47;5070065;28;20377;-86
2020/12/02 02:08:42;;;;;;;20.90;12.32;;;;;;;9.21;70.41;102230.81;5069438;28;20036;-85
2020/12/02 02:11:13;;;;;;;18.40;10.27;;;;;;;9.20;69.84;102239.63;5070268;28;20033;-85
2020/12/02 02:16:34;;;;;;;15.88;10.60;;;;;;;9.21;69.80;102242.25;5067570;27;20920;-88
2020/12/02 02:19:01;;;;;;;25.02;10.95;;;;;;;9.20;69.91;102240.50;5069865;28;20071;-87
2020/12/02 02:21:31;;;;;;;17.42;10.50;;;;;;;9.18;69.74;102228.13;5068471;28;20115;-87
2020/12/02 02:23:57;;;;;;;18.67;11.18;;;;;;;9.15;69.70;102236.06;5042685;28;20544;-86
2020/12/02 02:26:37;;;;;;;20.73;10.95;;;;;;;9.23;70.22;102234.34;5049627;28;20060;-87
2020/12/02 02:29:26;;;;;;;20.63;11.93;;;;;;;9.30;69.88;102238.81;5049482;28;20025;-87
2020/12/02 02:34:58;;;;;;;16.17;10.65;;;;;;;9.29;70.03;102226.44;5075964;27;20479;-87
2020/12/02 02:37:29;;;;;;;17.63;10.27;;;;;;;9.27;69.85;102230.88;5069797;28;20111;-86
2020/12/02 02:39:58;;;;;;;19.33;10.82;;;;;;;9.24;69.94;102222.88;5069787;28;20590;-86
2020/12/02 02:42:30;;;;;;;18.30;10.23;;;;;;;9.30;69.85;102225.56;5068142;28;20032;-86
2020/12/02 02:44:58;;;;;;;15.32;10.90;;;;;;;9.29;70.06;102217.63;5049448;28;20164;-87
2020/12/02 02:47:24;;;;;;;18.40;11.02;;;;;;;9.30;69.63;102220.28;5049088;28;20472;-87
2020/12/02 02:49:51;;;;;;;15.82;10.90;;;;;;;9.30;69.61;102217.66;5049199;28;20025;-89
2020/12/02 02:52:18;;;;;;;17.33;10.65;;;;;;;9.32;69.67;102215.91;5049807;28;20484;-86
2020/12/02 02:54:44;;;;;;;18.27;11.05;;;;;;;9.32;70.24;102207.97;5049478;28;20029;-86
2020/12/02 02:57:11;;;;;;;21.02;12.07;;;;;;;9.32;69.75;102207.06;5049193;28;20025;-86
2020/12/02 02:59:37;;;;;;;24.00;10.80;;;;;;;9.30;70.23;102209.72;5049291;28;20033;-87
2020/12/02 03:02:04;;;;;;;20.95;11.63;;;;;;;9.31;69.59;102202.66;5049702;28;20033;-86
2020/12/02 03:04:33;;;;;;;19.42;12.15;;;;;;;9.30;69.54;102204.41;5049099;28;20476;-86
2020/12/02 03:07:00;;;;;;;17.50;10.88;;;;;;;9.28;69.71;102203.50;5049303;28;20029;-87
2020/12/02 03:09:27;;;;;;;20.35;11.00;;;;;;;9.28;69.79;102205.28;5049072;28;20021;-87
2020/12/02 03:11:55;;;;;;;17.67;11.07;;;;;;;9.31;69.68;102200.00;5049411;28;20026;-87
2020/12/02 03:14:22;;;;;;;17.75;11.55;;;;;;;9.31;69.87;102200.91;5049185;28;20472;-87
2020/12/02 03:16:52;;;;;;;19.05;12.02;;;;;;;9.34;70.11;102190.34;5049041;28;20029;-86
2020/12/02 03:19:24;;;;;;;16.05;10.20;;;;;;;9.35;70.10;102186.81;5048838;28;20021;-87
2020/12/02 03:21:54;;;;;;;17.25;10.63;;;;;;;9.34;69.70;102192.97;5049065;28;20025;-87
2020/12/02 03:24:21;;;;;;;17.25;11.00;;;;;;;9.33;69.80;102199.16;5048715;28;20063;-87
2020/12/02 03:26:49;;;;;;;18.58;10.60;;;;;;;9.33;69.63;102196.53;5048870;28;20017;-88
2020/12/02 03:29:18;;;;;;;17.63;10.50;;;;;;;9.32;69.82;102200.03;5048955;28;20021;-88
2020/12/02 03:31:44;;;;;;;21.15;11.95;;;;;;;9.33;69.47;102199.16;5048866;28;20037;-87
2020/12/02 03:34:13;;;;;;;19.75;10.52;;;;;;;9.34;69.76;102203.56;5048803;28;20037;-85
2020/12/02 03:36:40;;;;;;;19.70;11.02;;;;;;;9.32;69.98;102202.69;5048235;28;20029;-86
2020/12/02 03:39:09;;;;;;;17.88;10.07;;;;;;;9.34;70.18;102206.19;5049409;28;20112;-88
2020/12/02 03:41:37;;;;;;;17.63;10.40;;;;;;;9.34;69.56;102200.03;5050052;28;20388;-87
2020/12/02 03:44:04;;;;;;;21.55;12.25;;;;;;;9.34;69.62;102200.03;5046782;28;20044;-87
2020/12/02 03:46:31;;;;;;;18.38;11.00;;;;;;;9.33;69.70;102201.81;5036620;28;20099;-87
2020/12/02 03:48:58;;;;;;;19.13;10.98;;;;;;;9.30;69.96;102193.84;5034645;28;20037;-86
2020/12/02 03:51:24;;;;;;;21.67;12.43;;;;;;;9.31;69.95;102195.63;5025795;28;20032;-86
2020/12/02 03:53:51;;;;;;;18.92;12.10;;;;;;;9.27;70.13;102188.53;5036949;28;20076;-87
2020/12/02 03:56:19;;;;;;;21.40;10.98;;;;;;;9.28;69.84;102195.56;5037001;28;20040;-87
2020/12/02 03:58:46;;;;;;;24.52;12.50;;;;;;;9.28;69.75;102192.94;5035618;28;20079;-87
2020/12/02 04:01:14;;;;;;;18.15;11.82;;;;;;;9.23;69.67;102187.63;5034788;28;20121;-86
2020/12/02 04:03:40;;;;;;;20.23;11.68;;;;;;;9.27;70.04;102195.56;5035104;28;20375;-86
2020/12/02 04:06:08;;;;;;;20.95;11.98;;;;;;;9.29;69.58;102184.13;5034591;28;20021;-86
2020/12/02 04:08:37;;;;;;;19.75;11.38;;;;;;;9.30;69.43;102188.56;5034964;28;20037;-87
2020/12/02 04:11:04;;;;;;;20.63;11.77;;;;;;;9.29;70.09;102180.63;5034522;28;20022;-90
2020/12/02 04:13:31;;;;;;;20.70;11.52;;;;;;;9.30;69.44;102177.97;5034939;28;20057;-87
2020/12/02 04:15:58;;;;;;;20.60;12.57;;;;;;;9.31;69.50;102171.81;5034649;28;20038;-87
2020/12/02 04:18:24;;;;;;;21.95;12.25;;;;;;;9.32;69.45;102170.03;5035085;28;20049;-86
2020/12/02 04:20:51;;;;;;;19.40;12.15;;;;;;;9.32;69.64;102165.66;5034642;28;20025;-87
2020/12/02 04:23:17;;;;;;;18.33;11.30;;;;;;;9.32;69.85;102157.72;5034493;28;20472;-86
2020/12/02 04:25:44;;;;;;;24.15;13.73;;;;;;;9.31;70.15;102155.94;5034580;28;20068;-86
2020/12/02 04:28:10;;;;;;;25.35;13.65;;;;;;;9.33;69.96;102155.94;5034496;28;20021;-86
2020/12/02 04:30:37;;;;;;;20.40;13.15;;;;;;;9.34;70.17;102152.44;5034581;28;20407;-88
2020/12/02 04:33:03;;;;;;;19.90;12.23;;;;;;;9.35;70.01;102159.50;5020351;28;20057;-88
2020/12/02 04:35:29;;;;;;;18.27;11.85;;;;;;;9.35;70.16;102160.38;5034749;28;20038;-87
2020/12/02 04:37:56;;;;;;;22.95;11.65;;;;;;;9.37;69.57;102158.63;5034523;28;20033;-86
2020/12/02 04:40:30;;;;;;;26.90;13.30;;;;;;;9.39;69.79;102162.19;5021408;28;20032;-87
2020/12/02 04:43:11;;;;;;;24.20;13.70;;;;;;;9.44;69.51;102153.38;5034585;28;20033;-88
2020/12/02 04:45:38;;;;;;;21.55;13.13;;;;;;;9.38;69.45;102155.13;5021887;28;20118;-88
2020/12/02 04:48:11;;;;;;;19.75;11.82;;;;;;;9.43;69.55;102157.75;5034257;28;20025;-87
2020/12/02 04:50:38;;;;;;;25.20;13.63;;;;;;;9.39;69.53;102156.88;5034221;28;20615;-87
2020/12/02 04:55:53;;;;;;;22.42;12.32;;;;;;;9.37;70.05;102153.34;5071542;27;20424;-86
2020/12/02 04:58:30;;;;;;;21.25;13.13;;;;;;;9.43;69.88;102154.25;5069714;28;20403;-87
2020/12/02 05:01:22;;;;;;;26.02;14.30;;;;;;;9.46;69.85;102152.50;5069699;28;20028;-88
2020/12/02 05:03:53;;;;;;;24.52;13.77;;;;;;;9.38;69.97;102144.53;5057652;28;20033;-88
2020/12/02 05:06:41;;;;;;;25.20;14.52;;;;;;;9.47;69.68;102145.44;5049663;28;20029;-86
2020/12/02 05:12:14;;;;;;;23.90;14.45;;;;;;;9.47;69.36;102149.00;5079582;27;20413;-86
2020/12/02 05:14:43;;;;;;;26.15;15.00;;;;;;;9.38;69.78;102149.81;5049401;28;20033;-88
2020/12/02 05:20:14;;;;;;;22.80;13.52;;;;;;;9.47;69.45;102145.44;5076858;27;20409;-89
2020/12/02 05:22:42;;;;;;;23.52;13.27;;;;;;;9.41;69.48;102129.53;5066925;28;20040;-88
2020/12/02 05:25:33;;;;;;;28.15;14.90;;;;;;;9.48;69.39;102140.19;5050042;28;20017;-88
2020/12/02 05:28:14;;;;;;;22.48;13.27;;;;;;;9.45;69.95;102139.28;5049508;28;20033;-89
2020/12/02 05:30:41;;;;;;;25.35;13.23;;;;;;;9.39;69.45;102135.72;5049682;28;20021;-90
2020/12/02 05:36:04;;;;;;;26.17;14.07;;;;;;;9.45;69.93;102139.28;5079836;27;21009;-89
2020/12/02 05:38:35;;;;;;;24.85;14.25;;;;;;;9.41;69.83;102132.19;5051667;28;20033;-89
2020/12/02 05:41:04;;;;;;;28.85;15.35;;;;;;;9.38;69.70;102133.94;5050153;28;20043;-87
2020/12/02 05:46:29;;;;;;;24.60;14.00;;;;;;;9.42;69.81;102128.66;5059323;28;20200;-87
2020/12/02 05:49:29;;;;;;;24.73;16.30;;;;;;;9.49;69.63;102125.19;5030010;28;20040;-87
2020/12/02 05:51:55;;;;;;;25.83;15.15;;;;;;;9.38;69.60;102118.06;5030142;28;20036;-86
2020/12/02 05:54:23;;;;;;;26.23;14.95;;;;;;;9.35;69.83;102118.03;5037585;28;20025;-87
2020/12/02 05:56:49;;;;;;;28.65;15.15;;;;;;;9.34;69.62;102118.91;5049757;28;20029;-87
2020/12/02 05:59:17;;;;;;;27.67;15.73;;;;;;;9.37;69.94;102116.31;5049217;28;20032;-87
2020/12/02 06:01:45;;;;;;;24.63;14.82;;;;;;;9.36;69.44;102103.94;5049772;28;20041;-87
2020/12/02 06:04:14;;;;;;;27.75;14.65;;;;;;;9.38;69.83;102106.59;5049157;28;20032;-86
2020/12/02 06:06:40;;;;;;;21.10;13.13;;;;;;;9.36;69.91;102111.88;5049738;28;20081;-86
2020/12/02 06:09:08;;;;;;;30.08;14.90;;;;;;;9.37;69.29;102113.66;5049334;28;20021;-87
2020/12/02 06:11:36;;;;;;;25.95;14.00;;;;;;;9.37;69.79;102111.00;5049764;28;20477;-87
2020/12/02 06:16:47;;;;;;;26.50;15.50;;;;;;;9.36;69.46;102103.06;5075805;27;20405;-83
2020/12/02 06:22:01;;;;;;;30.05;15.82;;;;;;;9.38;69.77;102107.50;5057350;27;20421;-83
2020/12/02 06:24:41;;;;;;;26.08;14.02;;;;;;;9.38;69.71;102103.94;5056337;28;20052;-84
2020/12/02 06:30:14;;;;;;;27.40;15.40;;;;;;;9.39;69.44;102103.97;5071479;27;20410;-84
2020/12/02 06:32:55;;;;;;;26.65;14.25;;;;;;;9.30;69.37;102101.28;5066074;28;20452;-85
2020/12/02 06:35:23;;;;;;;25.58;14.80;;;;;;;9.30;69.61;102098.63;5049605;28;20075;-84
2020/12/02 06:41:27;;;;;;;26.88;15.60;;;;;;;9.38;69.59;102090.72;5080011;27;20368;-84
2020/12/02 06:43:58;;;;;;;29.80;15.32;;;;;;;9.27;69.72;102092.44;5069381;28;20033;-84
2020/12/02 06:46:53;;;;;;;26.05;14.00;;;;;;;9.34;69.36;102092.47;5069971;28;20029;-83
2020/12/02 06:49:19;;;;;;;29.58;14.70;;;;;;;9.25;69.18;102095.06;5049384;28;20040;-84
2020/12/02 06:54:40;;;;;;;23.85;14.48;;;;;;;9.26;69.27;102088.00;5131081;27;20384;-83
2020/12/02 06:59:58;;;;;;;29.92;16.00;;;;;;;9.25;69.37;102092.44;5037763;28;20417;-83
2020/12/02 07:02:34;;;;;;;27.60;16.20;;;;;;;9.26;69.63;102094.19;5010124;28;20030;-83
2020/12/02 07:05:06;;;;;;;27.08;15.00;;;;;;;9.26;69.30;102085.38;5000642;28;20056;-83
2020/12/02 07:07:32;;;;;;;28.55;16.13;;;;;;;9.24;69.30;102098.59;5006982;28;20061;-83
2020/12/02 07:09:59;;;;;;;28.83;15.90;;;;;;;9.24;69.73;102095.94;5006682;28;20034;-83
2020/12/02 07:12:28;;;;;;;30.63;16.58;;;;;;;9.26;69.15;102094.19;5008505;28;20478;-83
2020/12/02 07:15:00;;;;;;;33.17;16.38;;;;;;;9.26;69.06;102096.84;5009170;28;20432;-83
2020/12/02 07:17:26;;;;;;;28.67;15.33;;;;;;;9.23;69.51;102099.47;5010061;28;20025;-85
2020/12/02 07:19:53;;;;;;;32.22;16.52;;;;;;;9.20;69.44;102095.03;5009532;28;20030;-82
2020/12/02 07:22:24;;;;;;;24.25;15.23;;;;;;;9.23;69.10;102099.47;5009947;28;20413;-82
2020/12/02 07:24:53;;;;;;;28.38;16.13;;;;;;;9.20;69.57;102094.16;5008834;28;20041;-83
2020/12/02 07:27:22;;;;;;;27.90;17.45;;;;;;;9.22;69.13;102081.81;5009853;28;20065;-83
2020/12/02 07:30:07;;;;;;;26.92;15.90;;;;;;;9.29;68.83;102070.41;5009590;28;20029;-83
2020/12/02 07:32:33;;;;;;;26.83;16.27;;;;;;;9.18;69.76;102080.03;5002139;28;20038;-83
2020/12/02 07:35:03;;;;;;;32.90;16.67;;;;;;;9.19;69.61;102089.75;4989552;28;20097;-80
2020/12/02 07:37:29;;;;;;;35.65;17.27;;;;;;;9.16;69.20;102090.63;5007267;28;20026;-83
2020/12/02 07:39:59;;;;;;;29.10;16.20;;;;;;;9.19;69.42;102087.09;4999963;28;20023;-83
2020/12/02 07:47:59;;;;;;;33.17;17.35;;;;;;;9.20;69.54;102088.88;5061720;27;20445;-85
2020/12/02 07:55:57;;;;;;;34.33;16.08;;;;;;;9.21;69.74;102085.38;5066346;27;20405;-84
2020/12/02 07:58:33;;;;;;;29.15;16.63;;;;;;;9.25;69.66;102087.13;5067625;28;20059;-84
2020/12/02 08:01:08;;;;;;;36.72;19.17;;;;;;;9.25;69.66;102088.91;5064990;28;20120;-84
2020/12/02 08:03:38;;;;;;;29.08;16.60;;;;;;;9.21;69.89;102077.44;5064115;28;20384;-84
2020/12/02 08:08:53;;;;;;;35.40;17.75;;;;;;;9.22;69.41;102080.06;5059398;27;20418;-84
2020/12/02 08:11:19;;;;;;;31.63;17.42;;;;;;;9.21;69.61;102069.50;5057901;28;20045;-85
2020/12/02 08:13:53;;;;;;;32.42;17.42;;;;;;;9.27;69.12;102065.97;5052225;28;20051;-85
2020/12/02 08:16:42;;;;;;;35.72;18.63;;;;;;;9.31;68.92;102063.38;5048302;28;20526;-83
2020/12/02 08:19:10;;;;;;;35.90;18.13;;;;;;;9.23;69.81;102062.44;5045995;28;20057;-83
2020/12/02 08:21:39;;;;;;;31.73;17.08;;;;;;;9.24;69.57;102061.56;5045111;28;20029;-83
2020/12/02 08:27:14;;;;;;;78.90;40.42;;;;;;;9.27;69.55;102056.31;5059421;27;20449;-81
2020/12/02 08:29:49;;;;;;;43.20;21.95;;;;;;;9.31;69.58;102051.88;5040596;28;20033;-84
2020/12/02 08:32:24;;;;;;;41.65;19.10;;;;;;;9.30;69.23;102044.84;5047310;28;20472;-83
2020/12/02 08:34:51;;;;;;;39.00;19.25;;;;;;;9.26;69.30;102043.97;5043321;28;20512;-83
2020/12/02 08:40:26;;;;;;;32.60;18.33;;;;;;;9.39;69.35;102037.84;5059247;28;20426;-83
2020/12/02 08:42:54;;;;;;;35.03;19.70;;;;;;;9.32;69.14;102043.09;5051582;28;20510;-84
2020/12/02 08:45:23;;;;;;;28.67;17.67;;;;;;;9.34;69.78;102042.22;5033460;28;20100;-84
2020/12/02 08:47:57;;;;;;;33.42;17.52;;;;;;;9.40;69.46;102036.06;5044672;28;20033;-85
2020/12/02 08:53:05;;;;;;;32.67;16.27;;;;;;;9.34;69.73;102036.91;5096356;27;20375;-83
2020/12/02 08:55:31;;;;;;;34.25;17.85;;;;;;;9.35;69.21;102035.19;5089304;28;20067;-82
2020/12/02 08:57:57;;;;;;;28.08;15.18;;;;;;;9.38;69.12;102035.19;5089004;28;20083;-82
2020/12/02 09:00:24;;;;;;;29.52;16.67;;;;;;;9.36;69.16;102023.72;5088689;28;20124;-83
2020/12/02 09:02:50;;;;;;;32.28;17.77;;;;;;;9.38;69.28;102028.16;5089070;28;20029;-83
2020/12/02 09:05:17;;;;;;;36.20;17.13;;;;;;;9.41;69.55;102026.38;5089882;28;20032;-82
2020/12/02 09:07:43;;;;;;;32.35;16.77;;;;;;;9.44;69.38;102024.63;5089855;28;20055;-83
2020/12/02 09:10:10;;;;;;;26.70;15.43;;;;;;;9.46;68.93;102021.97;5089801;28;20525;-83
2020/12/02 09:12:36;;;;;;;29.88;16.73;;;;;;;9.47;68.78;102019.34;5086141;28;20024;-83
2020/12/02 09:15:02;;;;;;;30.38;16.02;;;;;;;9.46;69.02;102019.31;5089365;28;20055;-83
2020/12/02 09:17:28;;;;;;;31.63;15.95;;;;;;;9.46;68.98;102014.94;5089086;28;20023;-83
2020/12/02 09:19:54;;;;;;;32.28;16.48;;;;;;;9.48;69.25;102017.59;5088610;28;20037;-84
2020/12/02 09:22:21;;;;;;;36.42;17.20;;;;;;;9.47;69.21;102011.41;5084995;28;20032;-83
2020/12/02 09:24:48;;;;;;;35.67;18.40;;;;;;;9.49;69.60;102008.78;5084725;28;20024;-83
2020/12/02 09:27:15;;;;;;;30.00;15.57;;;;;;;9.49;68.77;102011.41;5087248;28;20024;-85
2020/12/02 09:29:43;;;;;;;45.83;24.23;;;;;;;9.51;69.40;102009.66;5087095;28;20424;-84
2020/12/02 09:32:09;;;;;;;33.92;18.20;;;;;;;9.51;69.27;102007.03;5087430;28;20123;-85
2020/12/02 09:34:35;;;;;;;26.55;15.70;;;;;;;9.53;69.18;102019.38;5088025;28;20106;-83
2020/12/02 09:37:01;;;;;;;33.03;16.73;;;;;;;9.55;68.74;102014.09;5088722;28;20029;-84
2020/12/02 09:39:30;;;;;;;31.70;18.13;;;;;;;9.58;69.15;102014.06;5088806;28;20107;-87
2020/12/02 09:42:24;;;;;;;26.90;16.92;;;;;;;9.64;68.86;101998.22;5089231;28;20115;-84
2020/12/02 09:45:12;;;;;;;35.22;18.17;;;;;;;9.68;68.35;102001.75;5088852;28;20036;-85
2020/12/02 09:47:38;;;;;;;38.65;18.20;;;;;;;9.61;68.82;101998.22;5088974;28;20031;-87
2020/12/02 09:50:07;;;;;;;33.45;16.83;;;;;;;9.62;68.89;101997.34;5088685;28;20028;-84
2020/12/02 09:52:47;;;;;;;32.20;18.92;;;;;;;9.67;68.78;101992.03;5075566;28;20127;-84
2020/12/02 09:55:23;;;;;;;30.85;16.75;;;;;;;9.70;68.40;101992.06;5084306;28;20036;-85
2020/12/02 09:57:51;;;;;;;28.98;16.13;;;;;;;9.65;68.71;101988.53;5081769;28;21391;-84
2020/12/02 10:00:22;;;;;;;29.55;15.85;;;;;;;9.63;68.31;101990.28;5080780;28;20605;-84
2020/12/02 10:03:24;;;;;;;33.55;18.45;;;;;;;9.71;68.35;101984.13;5077647;28;20103;-85
2020/12/02 10:06:15;;;;;;;32.50;17.40;;;;;;;9.74;68.04;101971.78;5073311;28;20459;-84
2020/12/02 10:20:09;;;;;;;30.40;16.38;;;;;;;9.67;68.27;101961.19;5077617;27;20382;-84
2020/12/02 10:22:48;;;;;;;30.98;17.35;;;;;;;9.68;68.16;101962.06;5070047;28;20112;-85
2020/12/02 10:25:39;;;;;;;150.25;76.68;;;;;;;9.70;68.06;101963.84;5059409;28;20032;-85
2020/12/02 10:28:36;;;;;;;48.00;24.75;;;;;;;9.74;68.37;101953.25;5054953;28;20047;-84
2020/12/02 10:31:21;;;;;;;35.03;20.33;;;;;;;9.71;67.72;101952.38;5059659;28;20388;-85
2020/12/02 10:34:15;;;;;;;34.38;18.83;;;;;;;9.71;67.93;101947.06;5065421;28;20033;-85
2020/12/02 10:36:47;;;;;;;34.65;17.88;;;;;;;9.71;68.24;101931.19;5067521;28;20558;-85
2020/12/02 10:39:19;;;;;;;35.97;18.10;;;;;;;9.74;68.38;101934.75;5068290;28;20159;-85
2020/12/02 10:47:40;;;;;;;39.85;18.20;;;;;;;9.83;68.21;101913.56;5066071;28;20386;-86
2020/12/02 10:50:08;;;;;;;31.20;17.10;;;;;;;9.76;68.36;101902.09;5061152;28;20037;-86
2020/12/02 10:52:35;;;;;;;28.70;16.73;;;;;;;9.75;67.79;101905.63;5062631;28;20029;-86
2020/12/02 10:55:02;;;;;;;30.17;17.00;;;;;;;9.78;68.30;101895.06;5034223;28;20083;-83
2020/12/02 10:57:28;;;;;;;31.55;17.30;;;;;;;9.77;68.37;101897.66;5036614;28;20401;-84
2020/12/02 10:59:58;;;;;;;31.35;17.92;;;;;;;9.74;68.35;101887.09;5041529;28;20516;-81
2020/12/02 11:02:28;;;;;;;31.60;17.63;;;;;;;9.76;68.55;101880.03;5040436;28;20026;-85
2020/12/02 11:04:55;;;;;;;30.25;17.27;;;;;;;9.75;68.35;101873.00;5041376;28;20172;-85
2020/12/02 11:07:31;;;;;;;30.30;17.17;;;;;;;9.81;68.28;101873.00;5036623;28;20030;-85
2020/12/02 11:10:04;;;;;;;30.02;16.80;;;;;;;9.80;68.04;101866.78;5040328;28;20037;-85
2020/12/02 11:15:46;;;;;;;35.28;17.20;;;;;;;9.90;68.18;101865.03;5065915;28;20482;-85
2020/12/02 11:23:50;;;;;;;36.75;18.27;;;;;;;9.81;68.00;101846.53;5049287;28;20407;-86
2020/12/02 11:26:23;;;;;;;32.08;18.17;;;;;;;9.79;67.97;101843.84;5042024;28;20045;-86
2020/12/02 11:28:50;;;;;;;37.75;19.63;;;;;;;9.78;68.21;101843.84;5042548;28;20021;-88
2020/12/02 11:31:50;;;;;;;33.95;17.90;;;;;;;9.90;68.03;101827.97;5040530;28;20451;-87
2020/12/02 11:37:37;;;;;;;35.80;19.20;;;;;;;9.90;67.62;101820.03;5071532;28;20405;-86
2020/12/02 11:40:10;;;;;;;36.97;17.63;;;;;;;9.87;67.59;101814.75;5059926;28;20487;-85
2020/12/02 11:45:45;;;;;;;30.73;16.95;;;;;;;9.83;68.10;101808.59;5089894;27;20380;-85
2020/12/02 11:54:10;;;;;;;40.05;19.48;;;;;;;9.77;68.38;101800.66;5073887;28;20370;-84
2020/12/02 11:59:25;;;;;;;32.92;18.45;;;;;;;9.70;68.58;101793.59;5077301;27;20410;-84
2020/12/02 12:07:28;;;;;;;36.55;19.65;;;;;;;9.61;68.03;101768.03;5068714;27;20456;-85
2020/12/02 12:13:18;;;;;;;41.55;20.80;;;;;;;9.72;68.32;101768.00;5073321;27;20441;-86
2020/12/02 12:15:48;;;;;;;38.33;19.17;;;;;;;9.67;68.00;101760.06;5039707;28;20041;-93
2020/12/02 12:18:49;;;;;;;37.20;20.17;;;;;;;9.81;67.76;101751.25;5044328;28;20429;-83
2020/12/02 12:21:28;;;;;;;38.13;18.52;;;;;;;9.74;68.20;101744.19;5042247;28;20033;-91
2020/12/02 12:24:17;;;;;;;41.38;19.48;;;;;;;9.80;68.10;101738.88;5038707;28;20037;-94
2020/12/02 12:26:56;;;;;;;38.50;19.38;;;;;;;9.85;68.36;101743.25;5035435;28;20090;-94
2020/12/02 12:29:36;;;;;;;39.70;18.70;;;;;;;9.80;68.06;101741.53;5039266;28;20461;-90
2020/12/02 12:32:07;;;;;;;40.10;19.33;;;;;;;9.69;68.19;101736.25;5046163;28;20049;-96
2020/12/02 12:34:56;;;;;;;35.45;19.75;;;;;;;9.71;67.66;101732.72;5047420;28;20032;-95
2020/12/02 12:40:32;;;;;;;32.80;16.67;;;;;;;9.68;68.18;101719.50;5126823;27;20720;-93
2020/12/02 12:43:01;;;;;;;41.42;20.92;;;;;;;9.63;68.45;101707.16;5128741;27;20038;-96
2020/12/02 12:45:34;;;;;;;36.53;20.27;;;;;;;9.69;68.24;101710.69;5127680;28;20069;-96
2020/12/02 12:48:02;;;;;;;34.60;17.92;;;;;;;9.67;68.44;101704.50;5118290;28;20032;-94
2020/12/02 12:50:28;;;;;;;31.42;16.80;;;;;;;9.56;68.61;101701.00;5116895;27;20036;-95
2020/12/02 12:53:05;;;;;;;28.98;15.90;;;;;;;9.74;67.76;101699.19;5117186;27;20016;-95
2020/12/02 12:55:35;;;;;;;28.05;16.40;;;;;;;9.66;67.66;101689.50;5120808;28;20067;-96
2020/12/02 12:58:16;;;;;;;28.40;15.88;;;;;;;9.76;67.66;101694.75;5115735;28;20043;-88
2020/12/02 13:00:46;;;;;;;27.30;15.07;;;;;;;9.74;67.72;101696.56;5120978;28;20472;-91
2020/12/02 13:03:22;;;;;;;30.10;17.55;;;;;;;9.77;67.61;101691.25;5140914;27;20115;-96
2020/12/02 13:06:28;;;;;;;36.05;17.20;;;;;;;9.77;67.18;101686.84;5138643;28;20515;-96
2020/12/02 13:09:06;;;;;;;32.63;17.48;;;;;;;9.77;67.56;101685.94;5127515;28;20065;-96
2020/12/02 13:11:49;;;;;;;31.20;16.20;;;;;;;9.76;67.73;101676.22;5124082;27;20095;-94
2020/12/02 13:14:49;;;;;;;35.92;18.02;;;;;;;9.82;67.17;101676.22;5120357;28;20012;-96
2020/12/02 13:17:33;;;;;;;38.55;19.83;;;;;;;9.84;67.36;101677.09;5115204;27;20031;-96
2020/12/02 13:20:11;;;;;;;41.58;19.70;;;;;;;9.79;67.52;101674.47;5114156;28;20485;-96
2020/12/02 13:23:04;;;;;;;40.55;19.70;;;;;;;9.84;66.95;101674.47;5111430;27;20494;-90
2020/12/02 13:25:37;;;;;;;35.58;18.75;;;;;;;9.85;67.29;101666.50;5114508;28;20038;-94
2020/12/02 13:28:13;;;;;;;36.10;17.90;;;;;;;9.82;67.03;101666.53;5116385;28;20462;-95
2020/12/02 13:30:53;;;;;;;40.10;20.15;;;;;;;9.75;67.35;101658.63;5114470;28;20035;-96
2020/12/02 13:33:24;;;;;;;38.30;19.05;;;;;;;9.75;67.35;101648.03;5105014;28;20542;-96
2020/12/02 13:35:58;;;;;;;40.22;20.40;;;;;;;9.66;67.47;101652.47;5113993;27;20099;-92
2020/12/02 13:38:25;;;;;;;42.20;20.73;;;;;;;9.70;67.13;101648.91;5116180;27;20028;-96
2020/12/02 13:40:56;;;;;;;40.22;19.20;;;;;;;9.70;67.29;101648.91;5107994;28;20028;-96
2020/12/02 13:43:30;;;;;;;38.33;18.65;;;;;;;9.77;67.51;101646.25;5110825;27;20031;-96